Time;durP1;ratioP1;P1;durP2;ratioP2;P2;SDS_P1;SDS_P2;PMS_P1;PMS_P2;Temp;Humidity;BMP_temperature;BMP_pressure;BME280_temperature;BME280_humidity;BME280_pressure;Samples;Min_cycle;Max_cycle;Signal;HPM_P1;HPM_P2
2022/07/24 00:01:09;;;;;;;7.00;5.82;;;;;;;18.61;71.39;101811.56;5077561;28;20455;-45
2022/07/24 00:03:34;;;;;;;7.22;6.32;;;;;;;18.61;70.81;101814.25;5077069;28;20020;-48
2022/07/24 00:06:00;;;;;;;8.50;6.63;;;;;;;18.56;70.60;101812.00;5066028;28;20025;-47
2022/07/24 00:08:25;;;;;;;7.32;6.38;;;;;;;18.56;68.15;101809.31;5064505;28;20298;-44
2022/07/24 00:10:50;;;;;;;7.43;6.10;;;;;;;18.56;69.48;101811.16;5065380;28;20032;-46
2022/07/24 00:13:16;;;;;;;8.32;6.47;;;;;;;18.52;69.33;101809.75;5075661;28;20063;-46
2022/07/24 00:15:41;;;;;;;6.63;5.90;;;;;;;18.53;69.92;101804.22;5047511;28;20029;-46
2022/07/24 00:18:06;;;;;;;9.48;6.30;;;;;;;18.48;69.12;101801.13;5084398;28;20021;-45
2022/07/24 00:20:32;;;;;;;6.85;6.05;;;;;;;18.48;70.42;101798.44;5069888;28;20131;-45
2022/07/24 00:22:57;;;;;;;7.88;6.13;;;;;;;18.46;68.08;101801.25;5084063;28;20024;-46
2022/07/24 00:25:22;;;;;;;10.85;6.25;;;;;;;18.48;68.73;101802.00;5084613;28;20048;-46
2022/07/24 00:27:47;;;;;;;8.27;6.55;;;;;;;18.45;68.19;101796.03;5070153;28;20021;-49
2022/07/24 00:30:13;;;;;;;9.27;6.83;;;;;;;18.45;67.50;101798.72;5070028;28;20025;-47
2022/07/24 00:32:38;;;;;;;9.38;7.15;;;;;;;18.42;68.30;101797.19;5069863;28;20290;-46
2022/07/24 00:35:04;;;;;;;9.02;6.50;;;;;;;18.44;68.17;101800.56;5071532;28;20036;-44
2022/07/24 00:37:29;;;;;;;9.55;6.78;;;;;;;18.44;67.12;101797.03;5069462;28;20037;-45
2022/07/24 00:39:54;;;;;;;6.93;6.27;;;;;;;18.41;67.65;101800.84;5069853;28;20025;-47
2022/07/24 00:42:20;;;;;;;10.37;7.23;;;;;;;18.44;67.24;101800.56;5083373;28;20306;-46
2022/07/24 00:44:45;;;;;;;9.97;6.83;;;;;;;18.45;66.75;101806.78;5074227;28;20424;-46
2022/07/24 00:47:10;;;;;;;8.30;6.83;;;;;;;18.45;67.85;101806.78;5072328;28;20302;-47
2022/07/24 00:49:35;;;;;;;7.22;6.53;;;;;;;18.44;67.51;101803.25;5079489;28;20272;-46
2022/07/24 00:52:01;;;;;;;8.95;6.63;;;;;;;18.38;67.62;101792.22;5121126;22;20405;-77
2022/07/24 00:54:26;;;;;;;9.10;7.22;;;;;;;18.41;67.22;101789.25;5095627;28;20463;-78
2022/07/24 00:56:53;;;;;;;9.32;6.85;;;;;;;18.42;67.96;101796.34;5085022;28;20120;-78
2022/07/24 00:59:20;;;;;;;7.35;6.50;;;;;;;18.43;67.34;101795.34;5095593;28;20510;-79
2022/07/24 01:01:47;;;;;;;9.18;6.47;;;;;;;18.41;67.29;101800.84;5089287;28;20074;-78
2022/07/24 01:04:12;;;;;;;8.75;6.38;;;;;;;18.34;67.01;101794.38;5062188;28;20374;-79
2022/07/24 01:06:41;;;;;;;7.60;6.43;;;;;;;18.38;67.39;101794.91;5087162;28;20472;-79
2022/07/24 01:09:07;;;;;;;7.13;6.43;;;;;;;18.36;67.85;101796.91;5087748;28;20028;-78
2022/07/24 01:11:33;;;;;;;10.85;6.53;;;;;;;18.37;67.50;101787.84;5070660;28;20111;-79
2022/07/24 01:13:58;;;;;;;10.90;6.05;;;;;;;18.35;67.46;101789.84;5095181;28;20056;-78
2022/07/24 01:16:23;;;;;;;7.40;6.50;;;;;;;18.33;67.51;101789.13;5073423;28;20382;-78
2022/07/24 01:18:49;;;;;;;8.23;6.63;;;;;;;18.33;67.20;101791.81;5086018;28;20086;-79
2022/07/24 01:21:14;;;;;;;8.50;6.78;;;;;;;18.31;67.43;101794.66;5080243;28;20047;-79
2022/07/24 01:23:40;;;;;;;7.32;6.50;;;;;;;18.26;68.18;101797.78;5091320;28;20105;-79
2022/07/24 01:26:07;;;;;;;7.90;7.00;;;;;;;18.23;68.58;101795.38;5084456;28;20056;-78
2022/07/24 01:28:32;;;;;;;11.35;8.27;;;;;;;18.14;68.94;101788.19;5088503;28;20029;-79
2022/07/24 01:30:58;;;;;;;8.95;7.93;;;;;;;18.10;69.34;101792.13;5078432;28;20027;-78
2022/07/24 01:33:24;;;;;;;8.32;7.53;;;;;;;18.10;69.24;101789.44;5055384;28;20024;-79
2022/07/24 01:35:51;;;;;;;8.68;7.78;;;;;;;18.05;69.42;101792.59;5090815;28;20035;-79
2022/07/24 01:38:17;;;;;;;9.38;7.57;;;;;;;18.07;70.22;101795.13;5061335;28;20077;-79
2022/07/24 01:40:43;;;;;;;8.90;7.95;;;;;;;18.01;69.83;101785.78;5087475;28;20038;-78
2022/07/24 01:43:08;;;;;;;11.27;8.30;;;;;;;17.98;70.23;101791.44;5085531;28;20374;-78
2022/07/24 01:45:34;;;;;;;9.02;8.13;;;;;;;17.97;70.18;101788.91;5064298;28;20502;-79
2022/07/24 01:47:59;;;;;;;9.15;8.10;;;;;;;17.97;69.55;101784.41;5077029;28;20332;-78
2022/07/24 01:50:25;;;;;;;9.32;8.38;;;;;;;17.90;70.26;101781.44;5078206;28;20466;-79
2022/07/24 01:52:52;;;;;;;9.15;7.63;;;;;;;17.87;69.98;101779.03;5081912;28;20044;-79
2022/07/24 01:55:18;;;;;;;9.90;8.95;;;;;;;17.83;70.55;101780.25;5056275;28;20017;-79
2022/07/24 01:57:44;;;;;;;10.82;8.68;;;;;;;17.84;70.55;101778.44;5086595;28;20043;-78
2022/07/24 02:00:12;;;;;;;10.18;8.63;;;;;;;17.73;71.07;101774.88;5078407;28;20085;-78
2022/07/24 02:02:38;;;;;;;9.18;8.20;;;;;;;17.78;70.91;101777.16;5089124;28;20039;-79
2022/07/24 02:05:04;;;;;;;10.80;9.30;;;;;;;17.68;70.72;101774.44;5092963;28;20020;-79
2022/07/24 02:07:30;;;;;;;11.02;9.68;;;;;;;17.68;70.86;101773.63;5061679;28;20081;-79
2022/07/24 02:09:55;;;;;;;12.52;8.82;;;;;;;17.62;71.17;101777.72;5088421;28;20301;-79
2022/07/24 02:12:20;;;;;;;11.48;8.88;;;;;;;17.61;71.55;101781.41;5093248;28;20031;-79
2022/07/24 02:14:46;;;;;;;9.88;8.88;;;;;;;17.60;71.96;101782.38;5089642;28;20099;-79
2022/07/24 02:17:11;;;;;;;13.13;9.73;;;;;;;17.50;72.34;101779.69;5083081;28;20035;-79
2022/07/24 02:19:40;;;;;;;12.35;9.55;;;;;;;17.50;72.36;101779.69;5081271;28;20079;-79
2022/07/24 02:22:05;;;;;;;10.77;9.10;;;;;;;17.45;72.19;101775.72;5092600;28;20036;-79
2022/07/24 02:24:37;;;;;;;18.00;9.65;;;;;;;17.47;72.25;101776.41;5073835;28;20286;-79
2022/07/24 02:27:03;;;;;;;10.32;9.20;;;;;;;17.41;71.98;101771.63;5075073;28;20028;-79
2022/07/24 02:29:28;;;;;;;9.43;8.05;;;;;;;17.36;72.82;101770.19;5077410;28;20032;-79
2022/07/24 02:31:54;;;;;;;10.25;8.77;;;;;;;17.35;72.89;101770.34;5085416;28;20016;-79
2022/07/24 02:34:19;;;;;;;9.77;8.70;;;;;;;17.34;72.48;101779.41;5089373;28;20028;-78
2022/07/24 02:36:44;;;;;;;10.90;9.52;;;;;;;17.30;73.30;101769.91;5089549;28;20024;-78
2022/07/24 02:39:10;;;;;;;11.60;9.57;;;;;;;17.33;72.99;101781.22;5073840;28;20433;-78
2022/07/24 02:41:35;;;;;;;12.70;9.32;;;;;;;17.27;73.73;101783.59;5091756;28;20034;-79
2022/07/24 02:44:01;;;;;;;11.73;9.05;;;;;;;17.22;73.70;101777.81;5091957;28;20032;-79
2022/07/24 02:46:26;;;;;;;11.95;9.48;;;;;;;17.23;73.44;101783.03;5090184;28;20082;-79
2022/07/24 02:48:52;;;;;;;11.35;9.55;;;;;;;17.22;73.36;101780.50;5073428;28;20482;-79
2022/07/24 02:51:17;;;;;;;10.35;9.25;;;;;;;17.19;73.55;101790.53;5090078;28;20044;-79
2022/07/24 02:53:42;;;;;;;12.38;10.02;;;;;;;17.17;73.61;101792.50;5090606;28;20032;-78
2022/07/24 02:56:08;;;;;;;11.43;9.70;;;;;;;17.15;73.89;101791.81;5091112;28;20035;-79
2022/07/24 02:58:34;;;;;;;14.20;10.40;;;;;;;17.09;74.15;101791.50;5091305;28;20373;-79
2022/07/24 03:00:59;;;;;;;12.13;10.02;;;;;;;17.03;74.19;101776.78;5089972;28;20018;-79
2022/07/24 03:03:25;;;;;;;11.20;9.95;;;;;;;16.99;74.33;101786.09;5083076;28;20096;-79
2022/07/24 03:05:50;;;;;;;12.30;10.38;;;;;;;16.95;74.57;101784.66;5082488;28;20490;-78
2022/07/24 03:08:16;;;;;;;12.35;9.80;;;;;;;16.94;74.15;101783.81;5083925;28;20494;-79
2022/07/24 03:10:41;;;;;;;11.02;9.48;;;;;;;16.93;74.34;101770.53;5091337;28;20379;-79
2022/07/24 03:13:06;;;;;;;12.45;10.73;;;;;;;16.93;74.39;101779.44;5088881;28;20478;-79
2022/07/24 03:15:32;;;;;;;16.75;12.43;;;;;;;16.89;74.20;101771.81;5060353;28;20036;-78
2022/07/24 03:17:57;;;;;;;16.38;11.95;;;;;;;16.86;75.09;101778.28;5072791;28;20031;-79
2022/07/24 03:20:26;;;;;;;13.55;11.98;;;;;;;16.83;74.90;101776.66;5090115;28;20035;-79
2022/07/24 03:22:51;;;;;;;14.70;12.10;;;;;;;16.82;74.92;101777.69;5065386;28;20020;-78
2022/07/24 03:25:18;;;;;;;14.30;12.43;;;;;;;16.78;74.84;101773.53;5059527;28;20028;-78
2022/07/24 03:27:46;;;;;;;13.45;12.15;;;;;;;16.79;75.15;101779.78;5082575;28;20039;-79
2022/07/24 03:30:12;;;;;;;15.70;13.65;;;;;;;16.74;75.42;101771.28;5073475;28;20057;-78
2022/07/24 03:32:38;;;;;;;13.88;12.40;;;;;;;16.70;76.09;101772.53;5079230;28;20031;-78
2022/07/24 03:35:03;;;;;;;17.35;12.93;;;;;;;16.76;75.43;101777.38;5081640;28;20040;-79
2022/07/24 03:37:29;;;;;;;15.02;13.57;;;;;;;16.70;76.34;101769.84;5081243;28;20080;-79
2022/07/24 03:39:54;;;;;;;14.65;13.15;;;;;;;16.68;76.24;101779.88;5073708;28;20033;-78
2022/07/24 03:42:20;;;;;;;15.95;12.55;;;;;;;16.67;75.83;101771.00;5076894;28;20024;-79
2022/07/24 03:44:45;;;;;;;15.02;13.52;;;;;;;16.66;75.75;101774.66;5079663;28;20040;-79
2022/07/24 03:47:10;;;;;;;17.03;14.63;;;;;;;16.61;76.18;101767.00;5091010;28;20024;-78
2022/07/24 03:49:36;;;;;;;15.02;13.45;;;;;;;16.62;76.08;101774.06;5086711;28;20377;-79
2022/07/24 03:52:02;;;;;;;15.60;13.73;;;;;;;16.58;76.03;101764.56;5095457;28;20048;-79
2022/07/24 03:54:28;;;;;;;15.07;13.50;;;;;;;16.58;76.34;101766.41;5093047;28;20036;-79
2022/07/24 03:56:53;;;;;;;17.13;13.77;;;;;;;16.59;76.45;101766.28;5096513;28;20032;-79
2022/07/24 03:59:18;;;;;;;15.85;14.13;;;;;;;16.59;76.25;101763.59;5068389;28;20639;-79
2022/07/24 04:01:44;;;;;;;18.17;15.73;;;;;;;16.55;76.78;101759.47;5084159;28;20103;-79
2022/07/24 04:04:10;;;;;;;18.58;14.68;;;;;;;16.57;76.75;101767.38;5092040;28;20031;-78
2022/07/24 04:06:35;;;;;;;17.48;15.65;;;;;;;16.55;76.77;101764.00;5096345;28;20016;-79
2022/07/24 04:09:03;;;;;;;18.55;16.20;;;;;;;16.53;76.81;101765.97;5093466;28;20027;-79
2022/07/24 04:11:31;;;;;;;18.40;16.42;;;;;;;16.52;76.96;101764.25;5079832;28;20021;-79
2022/07/24 04:13:56;;;;;;;20.70;16.85;;;;;;;16.52;77.57;101761.59;5088945;28;20020;-79
2022/07/24 04:16:22;;;;;;;21.73;17.10;;;;;;;16.53;77.90;101763.28;5083024;28;20049;-78
2022/07/24 04:18:48;;;;;;;19.45;17.48;;;;;;;16.50;78.01;101763.56;5095821;28;20028;-79
2022/07/24 04:21:13;;;;;;;22.27;18.17;;;;;;;16.50;77.72;101758.19;5083387;28;20058;-79
2022/07/24 04:23:39;;;;;;;23.73;19.92;;;;;;;16.48;78.32;101766.38;5091268;28;20474;-78
2022/07/24 04:26:04;;;;;;;22.08;19.60;;;;;;;16.50;78.63;101774.28;5096464;28;20577;-79
2022/07/24 04:28:30;;;;;;;25.92;20.40;;;;;;;16.49;79.06;101781.47;5073165;28;20024;-79
2022/07/24 04:30:56;;;;;;;23.95;19.95;;;;;;;16.53;78.00;101774.84;5089708;28;20514;-79
2022/07/24 04:33:22;;;;;;;23.35;20.80;;;;;;;16.52;78.63;101777.66;5072005;28;20542;-79
2022/07/24 04:35:47;;;;;;;26.73;21.48;;;;;;;16.54;79.00;101778.41;5091258;28;20027;-79
2022/07/24 04:38:12;;;;;;;25.38;22.13;;;;;;;16.56;79.13;101782.63;5088922;28;20024;-79
2022/07/24 04:40:38;;;;;;;30.08;22.20;;;;;;;16.57;79.00;101783.47;5083958;28;20032;-78
2022/07/24 04:43:04;;;;;;;25.05;21.67;;;;;;;16.52;79.42;101775.00;5099127;28;20028;-78
2022/07/24 04:45:29;;;;;;;24.90;21.45;;;;;;;16.58;79.29;101777.97;5080134;28;20032;-79
2022/07/24 04:47:55;;;;;;;26.48;23.70;;;;;;;16.61;79.41;101782.25;5076485;28;20032;-79
2022/07/24 04:50:20;;;;;;;26.63;23.70;;;;;;;16.62;79.09;101779.44;5092780;28;20032;-78
2022/07/24 04:52:46;;;;;;;27.85;24.88;;;;;;;16.61;79.93;101776.88;5072127;28;20045;-78
2022/07/24 04:55:12;;;;;;;27.80;24.80;;;;;;;16.66;79.62;101780.00;5067404;28;20029;-79
2022/07/24 04:57:38;;;;;;;29.95;25.58;;;;;;;16.65;80.22;101780.97;5063866;28;20772;-78
2022/07/24 05:00:07;;;;;;;29.83;26.52;;;;;;;16.65;80.58;101780.97;5063552;28;20029;-78
2022/07/24 05:02:33;;;;;;;;;;;;;;;16.79;77.25;101779.78;5069839;28;20086;-79
2022/07/24 05:04:58;;;;;;;30.30;26.92;;;;;;;16.75;80.13;101778.34;5060264;28;19912;-79
2022/07/24 05:07:24;;;;;;;33.83;27.73;;;;;;;16.78;80.20;101773.53;5072331;28;20033;-78
2022/07/24 05:09:49;;;;;;;30.95;27.80;;;;;;;16.79;80.70;101771.75;5071998;28;20593;-78
2022/07/24 05:12:15;;;;;;;33.10;29.67;;;;;;;16.81;79.94;101770.59;5075232;28;20020;-79
2022/07/24 05:14:41;;;;;;;32.90;27.88;;;;;;;16.85;80.40;101770.38;5072008;28;20029;-79
2022/07/24 05:17:06;;;;;;;34.22;29.02;;;;;;;16.83;80.55;101773.16;5076129;28;20016;-78
2022/07/24 05:19:32;;;;;;;30.90;27.70;;;;;;;16.91;80.46;101773.34;5071715;28;20103;-79
2022/07/24 05:21:57;;;;;;;32.22;27.35;;;;;;;16.96;80.05;101779.16;5060742;28;20107;-78
2022/07/24 05:24:24;;;;;;;31.03;26.07;;;;;;;17.01;79.91;101784.13;5058162;28;20036;-79
2022/07/24 05:26:50;;;;;;;31.65;28.20;;;;;;;17.04;80.90;101782.97;5059468;28;20279;-79
2022/07/24 05:29:15;;;;;;;32.17;28.60;;;;;;;17.10;80.26;101791.38;5075182;28;20032;-79
2022/07/24 05:31:41;;;;;;;31.88;28.55;;;;;;;17.14;80.32;101786.56;5064463;28;20542;-78
2022/07/24 05:34:06;;;;;;;37.10;28.42;;;;;;;17.24;80.46;101783.91;5059608;28;20103;-78
2022/07/24 05:36:32;;;;;;;35.22;28.70;;;;;;;17.36;80.38;101788.16;5070766;28;20034;-78
2022/07/24 05:38:57;;;;;;;33.28;27.92;;;;;;;17.50;79.60;101793.13;5065546;28;20054;-79
2022/07/24 05:41:22;;;;;;;33.00;27.77;;;;;;;17.66;79.25;101795.25;5064165;28;20025;-78
2022/07/24 05:43:48;;;;;;;31.52;27.65;;;;;;;17.82;78.59;101794.69;5071636;28;20025;-78
2022/07/24 05:46:13;;;;;;;33.42;27.80;;;;;;;17.96;78.45;101796.13;5072905;28;20401;-78
2022/07/24 05:48:39;;;;;;;31.48;27.40;;;;;;;18.14;77.44;101795.41;5074618;28;20032;-79
2022/07/24 05:51:04;;;;;;;32.13;27.08;;;;;;;18.27;76.73;101790.56;5075571;28;20024;-78
2022/07/24 05:53:29;;;;;;;33.63;26.98;;;;;;;18.43;75.86;101796.16;5092855;28;20020;-78
2022/07/24 05:55:55;;;;;;;30.55;25.10;;;;;;;18.61;75.09;101793.56;5094486;28;20047;-80
2022/07/24 05:58:20;;;;;;;28.83;25.70;;;;;;;18.73;75.15;101793.41;5085201;28;20106;-79
2022/07/24 06:00:46;;;;;;;31.73;25.65;;;;;;;18.96;73.89;101789.34;5072604;28;20020;-79
2022/07/24 06:03:12;;;;;;;28.35;24.30;;;;;;;19.14;73.31;101797.47;5065244;28;20023;-79
2022/07/24 06:05:37;;;;;;;29.02;24.30;;;;;;;19.32;72.84;101797.50;5086506;28;20158;-79
2022/07/24 06:08:03;;;;;;;28.02;24.02;;;;;;;19.46;72.78;101803.38;5083020;28;20020;-80
2022/07/24 06:10:29;;;;;;;28.75;23.85;;;;;;;19.58;70.58;101800.31;5089009;28;20093;-79
2022/07/24 06:12:54;;;;;;;25.20;22.40;;;;;;;19.76;70.04;101803.00;5079335;28;20542;-80
2022/07/24 06:15:20;;;;;;;26.98;22.45;;;;;;;19.84;70.25;101806.81;5079530;28;20030;-80
2022/07/24 06:17:45;;;;;;;25.73;22.73;;;;;;;20.01;69.42;101800.53;5079685;28;20034;-80
2022/07/24 06:20:12;;;;;;;23.52;20.75;;;;;;;20.19;68.42;101808.59;5065222;28;20023;-81
2022/07/24 06:22:38;;;;;;;25.55;21.08;;;;;;;20.34;67.52;101807.00;5074076;28;20121;-80
2022/07/24 06:25:04;;;;;;;27.02;21.98;;;;;;;20.49;67.24;101806.44;5086281;28;20024;-81
2022/07/24 06:27:29;;;;;;;24.58;20.05;;;;;;;20.64;66.92;101799.47;5084868;28;20384;-81
2022/07/24 06:29:55;;;;;;;24.00;20.17;;;;;;;20.78;66.54;101803.41;5085863;28;20020;-82
2022/07/24 06:32:20;;;;;;;27.42;20.52;;;;;;;20.88;66.14;101800.59;5079567;28;20035;-81
2022/07/24 06:34:45;;;;;;;23.88;20.30;;;;;;;21.01;64.54;101795.56;5093954;28;20028;-82
2022/07/24 06:37:11;;;;;;;21.17;18.53;;;;;;;21.26;64.69;101804.59;5092106;28;20020;-80
2022/07/24 06:39:36;;;;;;;21.70;17.23;;;;;;;21.32;63.86;101797.72;5082356;28;20284;-80
2022/07/24 06:42:01;;;;;;;20.80;17.83;;;;;;;21.59;63.35;101802.00;5092246;28;20293;-80
2022/07/24 06:44:27;;;;;;;23.95;16.65;;;;;;;21.77;61.98;101796.44;5091686;28;20020;-81
2022/07/24 06:46:52;;;;;;;18.20;15.80;;;;;;;22.09;61.90;101797.44;5078592;28;20383;-81
2022/07/24 06:49:17;;;;;;;17.55;14.48;;;;;;;22.18;59.23;101792.88;5082333;28;20039;-80
2022/07/24 06:51:43;;;;;;;18.17;13.88;;;;;;;22.37;59.29;101797.13;5078261;28;20056;-81
2022/07/24 06:54:08;;;;;;;17.58;14.27;;;;;;;22.57;58.33;101794.88;5054227;28;20044;-81
2022/07/24 06:56:34;;;;;;;20.33;12.97;;;;;;;22.73;57.84;101792.13;5067357;28;20028;-81
2022/07/24 06:59:08;;;;;;;14.33;12.30;;;;;;;22.94;58.63;101784.41;5065763;28;20761;-81
2022/07/24 07:01:33;;;;;;;15.45;12.50;;;;;;;23.24;56.04;101786.31;5062608;28;20290;-81
2022/07/24 07:03:59;;;;;;;12.90;11.43;;;;;;;23.49;55.81;101780.72;5068241;28;20012;-81
2022/07/24 07:06:44;;;;;;;16.47;12.10;;;;;;;23.65;56.84;101783.31;5069873;28;20332;-80
2022/07/24 07:09:10;;;;;;;10.60;9.45;;;;;;;23.87;53.11;101780.81;5062581;28;20837;-81
2022/07/24 07:11:38;;;;;;;10.57;7.72;;;;;;;24.11;52.94;101787.88;5066138;28;20480;-81
2022/07/24 07:14:03;;;;;;;10.30;8.00;;;;;;;24.34;50.92;101776.13;5070794;28;20064;-81
2022/07/24 07:16:31;;;;;;;10.23;8.00;;;;;;;24.63;51.60;101786.19;5068591;28;20052;-81
2022/07/24 07:18:57;;;;;;;10.87;8.07;;;;;;;24.77;51.56;101789.06;5070852;28;20290;-80
2022/07/24 07:21:22;;;;;;;9.38;7.20;;;;;;;25.03;49.81;101797.56;5071102;28;20035;-80
2022/07/24 07:23:47;;;;;;;10.03;5.90;;;;;;;25.13;47.17;101797.28;5070628;28;20021;-81
2022/07/24 07:26:12;;;;;;;8.17;5.67;;;;;;;25.23;47.90;101792.38;5072460;28;20373;-81
2022/07/24 07:28:38;;;;;;;6.95;4.95;;;;;;;25.44;46.02;101797.00;5075303;28;20278;-81
2022/07/24 07:31:03;;;;;;;6.90;5.33;;;;;;;25.60;45.83;101789.66;5075552;28;20386;-81
2022/07/24 07:33:29;;;;;;;5.43;4.93;;;;;;;25.73;45.52;101786.19;5062876;28;20279;-81
2022/07/24 07:35:54;;;;;;;6.90;4.90;;;;;;;25.85;44.92;101782.75;5075280;28;20024;-81
2022/07/24 07:38:19;;;;;;;5.70;4.70;;;;;;;25.93;44.14;101791.81;5075521;28;20067;-81
2022/07/24 07:40:45;;;;;;;7.32;4.85;;;;;;;26.20;43.11;101787.47;5072713;28;20294;-81
2022/07/24 07:43:10;;;;;;;7.53;4.38;;;;;;;26.29;43.29;101780.81;5064507;28;20020;-81
2022/07/24 07:45:36;;;;;;;4.35;3.60;;;;;;;26.62;42.83;101791.06;5074792;28;20043;-78
2022/07/24 07:48:02;;;;;;;4.13;3.40;;;;;;;26.72;41.48;101785.28;5076040;28;20035;-80
2022/07/24 07:50:27;;;;;;;3.50;2.88;;;;;;;26.88;40.80;101793.13;5074768;28;20024;-78
2022/07/24 07:52:52;;;;;;;4.03;3.17;;;;;;;27.08;40.93;101785.00;5065570;28;20044;-79
2022/07/24 07:55:17;;;;;;;2.60;2.33;;;;;;;27.22;39.36;101774.16;5068639;28;20374;-77
2022/07/24 07:57:43;;;;;;;2.78;2.20;;;;;;;27.26;38.63;101776.25;5048062;28;20286;-79
2022/07/24 08:00:10;;;;;;;2.40;2.20;;;;;;;27.42;39.27;101780.50;5070257;28;20025;-81
2022/07/24 08:02:35;;;;;;;3.38;2.55;;;;;;;27.83;38.34;101782.22;5074159;28;20032;-80
2022/07/24 08:05:00;;;;;;;3.53;2.43;;;;;;;28.03;37.30;101771.34;5070219;28;20036;-81
2022/07/24 08:07:25;;;;;;;3.97;2.87;;;;;;;28.17;37.29;101774.88;5059735;28;20333;-80
2022/07/24 08:09:51;;;;;;;2.63;2.40;;;;;;;28.42;37.66;101768.75;5065505;28;20029;-81
2022/07/24 08:12:16;;;;;;;4.43;2.37;;;;;;;28.48;38.17;101769.78;5074849;28;20309;-80
2022/07/24 08:14:42;;;;;;;2.70;2.25;;;;;;;28.75;38.11;101778.78;5056142;28;20781;-79
2022/07/24 08:17:11;;;;;;;3.22;2.40;;;;;;;28.81;38.13;101777.88;5048429;28;20025;-80
2022/07/24 08:19:37;;;;;;;4.07;2.50;;;;;;;28.93;36.34;101773.44;5061046;28;20025;-80
2022/07/24 08:22:02;;;;;;;3.08;2.25;;;;;;;29.18;34.99;101769.13;5054806;28;20671;-80
2022/07/24 08:24:27;;;;;;;3.60;2.27;;;;;;;29.36;35.73;101773.84;5058547;28;20041;-80
2022/07/24 08:26:55;;;;;;;3.22;2.40;;;;;;;29.56;35.55;101774.56;5064184;28;20279;-81
2022/07/24 08:29:20;;;;;;;2.55;2.35;;;;;;;29.75;35.33;101777.38;5074286;28;20488;-81
2022/07/24 08:31:45;;;;;;;2.50;2.13;;;;;;;30.10;34.86;101780.47;5072753;28;20101;-81
2022/07/24 08:34:14;;;;;;;3.40;2.33;;;;;;;30.20;34.52;101786.25;5066125;28;20367;-80
2022/07/24 08:36:45;;;;;;;2.72;2.15;;;;;;;30.34;33.83;101778.72;5043515;28;20381;-81
2022/07/24 08:39:13;;;;;;;3.45;2.40;;;;;;;30.42;34.07;101774.88;5077106;28;20037;-80
2022/07/24 08:41:39;;;;;;;2.38;2.17;;;;;;;30.64;33.65;101772.50;5077010;28;20020;-80
2022/07/24 08:44:05;;;;;;;3.88;2.42;;;;;;;30.67;34.17;101771.22;5073833;28;20016;-80
2022/07/24 08:46:32;;;;;;;5.68;2.70;;;;;;;31.01;33.21;101772.53;5063752;28;20506;-80
2022/07/24 08:49:00;;;;;;;5.10;2.70;;;;;;;31.03;33.18;101767.63;5059335;28;20047;-80
2022/07/24 08:51:33;;;;;;;3.15;2.20;;;;;;;31.26;34.06;101758.66;5070218;28;20029;-80
2022/07/24 08:53:59;;;;;;;3.05;2.72;;;;;;;31.43;33.60;101758.81;5067657;28;20062;-81
2022/07/24 08:56:25;;;;;;;3.03;2.60;;;;;;;31.38;33.33;101758.69;5071676;28;20388;-82
2022/07/24 08:58:50;;;;;;;4.32;2.70;;;;;;;31.52;32.84;101762.91;5066761;28;20035;-80
2022/07/24 09:01:16;;;;;;;3.53;2.53;;;;;;;31.53;33.71;101766.50;5071538;28;20024;-80
2022/07/24 09:03:44;;;;;;;2.90;2.58;;;;;;;31.72;32.67;101775.47;5072507;28;20024;-81
2022/07/24 09:06:10;;;;;;;3.85;2.45;;;;;;;31.64;32.70;101771.19;5062211;28;20491;-81
2022/07/24 09:08:37;;;;;;;3.40;2.72;;;;;;;31.79;32.35;101758.88;5064277;28;20032;-81
2022/07/24 09:11:04;;;;;;;3.88;2.70;;;;;;;31.78;32.22;101762.72;5057045;28;20025;-81
2022/07/24 09:14:29;;;;;;;3.88;2.25;;;;;;;32.04;32.19;101769.66;5066498;28;20039;-81
2022/07/24 09:16:22;;;;;;;2.28;2.08;;;;;;;32.35;31.61;101762.13;5062724;28;20025;-80
2022/07/24 09:18:48;;;;;;;3.03;2.83;;;;;;;32.27;32.46;101752.34;5062979;28;20029;-81
2022/07/24 09:21:16;;;;;;;3.15;2.90;;;;;;;32.49;31.91;101751.69;5057435;28;20029;-80
2022/07/24 09:23:43;;;;;;;2.53;2.33;;;;;;;32.62;31.03;101755.03;5069435;28;20035;-80
2022/07/24 09:26:09;;;;;;;3.97;2.08;;;;;;;32.72;31.30;101740.66;5065302;28;20028;-80
2022/07/24 09:28:51;;;;;;;2.28;2.03;;;;;;;33.01;32.41;101737.94;5066425;28;20107;-80
2022/07/24 09:31:17;;;;;;;4.47;2.03;;;;;;;33.01;30.88;101738.75;5053684;28;20031;-80
2022/07/24 09:33:43;;;;;;;2.17;2.00;;;;;;;32.99;30.91;101729.91;5069428;28;20530;-80
2022/07/24 09:36:14;;;;;;;1.98;1.88;;;;;;;33.24;30.99;101727.88;5078818;28;20437;-80
2022/07/24 09:38:46;;;;;;;2.47;2.10;;;;;;;33.31;31.12;101736.81;5062173;28;20027;-80
2022/07/24 09:41:12;;;;;;;2.67;2.17;;;;;;;33.48;29.33;101734.09;5064293;28;20479;-80
2022/07/24 09:43:38;;;;;;;2.80;2.00;;;;;;;33.52;29.61;101722.31;5074361;28;20070;-80
2022/07/24 09:46:09;;;;;;;2.25;1.83;;;;;;;33.41;29.32;101728.75;5062027;28;20093;-80
2022/07/24 09:48:41;;;;;;;3.60;2.03;;;;;;;33.65;29.07;101721.13;5071061;28;20032;-80
2022/07/24 09:51:12;;;;;;;3.28;2.20;;;;;;;33.67;29.69;101729.16;5073534;28;20032;-80
2022/07/24 09:53:38;;;;;;;5.00;1.83;;;;;;;33.89;28.78;101718.22;5065334;28;20119;-79
2022/07/24 09:56:17;;;;;;;3.60;1.83;;;;;;;33.96;29.36;101713.38;5071806;28;20059;-81
2022/07/24 09:58:45;;;;;;;2.13;1.70;;;;;;;34.23;28.41;101712.66;5065175;28;20068;-80
2022/07/24 10:01:12;;;;;;;2.97;1.83;;;;;;;34.27;30.03;101713.81;5063973;28;20127;-81
2022/07/24 10:03:39;;;;;;;4.80;1.70;;;;;;;34.32;28.38;101711.13;5062714;28;20467;-82
2022/07/24 10:06:07;;;;;;;5.13;1.90;;;;;;;34.39;27.96;101708.16;5071974;28;20048;-81
2022/07/24 10:08:36;;;;;;;;;;;;;;;34.96;30.73;101710.50;5073665;28;20035;-80
2022/07/24 10:11:02;;;;;;;1.77;1.65;;;;;;;34.85;27.63;101705.97;5073684;28;19908;-81
2022/07/24 10:13:28;;;;;;;2.47;2.00;;;;;;;35.05;27.16;101705.31;5072258;28;20513;-81
2022/07/24 10:16:09;;;;;;;1.98;1.70;;;;;;;35.16;28.52;101695.22;5054356;28;20123;-80
2022/07/24 10:18:37;;;;;;;2.47;2.00;;;;;;;34.77;26.63;101700.91;5052620;28;20365;-79
2022/07/24 10:21:06;;;;;;;;;;;;;;;35.60;28.52;101695.03;5066752;28;20098;-80
2022/07/24 10:23:57;;;;;;;1.65;1.55;;;;;;;35.22;27.72;101694.16;5072778;28;20279;-80
2022/07/24 10:26:34;;;;;;;2.35;1.90;;;;;;;35.33;27.85;101673.84;5069316;28;20028;-80
2022/07/24 10:29:07;;;;;;;2.75;1.75;;;;;;;35.27;26.67;101685.13;5068706;28;20396;-80
2022/07/24 10:31:35;;;;;;;1.88;1.77;;;;;;;35.28;26.73;101687.63;5067942;28;20023;-79
2022/07/24 10:34:04;;;;;;;3.38;1.70;;;;;;;35.28;27.36;101681.25;5067284;28;20025;-80
2022/07/24 10:36:38;;;;;;;4.35;2.03;;;;;;;35.31;26.83;101683.50;5068413;28;20030;-81
2022/07/24 10:39:32;;;;;;;1.95;1.85;;;;;;;35.87;26.72;101672.81;5074290;28;20534;-81
2022/07/24 10:42:05;;;;;;;2.03;1.88;;;;;;;36.00;25.85;101674.28;5042115;28;20032;-80
2022/07/24 10:44:31;;;;;;;1.67;1.58;;;;;;;35.92;25.28;101675.66;5081213;28;20024;-82
2022/07/24 10:47:13;;;;;;;2.67;2.13;;;;;;;35.82;26.37;101675.56;5084693;28;20032;-82
2022/07/24 10:49:40;;;;;;;2.20;2.00;;;;;;;35.93;24.50;101677.28;5073126;28;20016;-82
2022/07/24 10:52:06;;;;;;;2.15;2.00;;;;;;;35.81;24.52;101665.63;5090482;28;20546;-82
2022/07/24 10:54:31;;;;;;;2.70;2.00;;;;;;;35.69;25.56;101667.72;5088441;28;20032;-83
2022/07/24 10:56:56;;;;;;;6.80;2.10;;;;;;;35.86;25.06;101664.84;5096997;28;20091;-83
2022/07/24 10:59:37;;;;;;;2.07;1.83;;;;;;;36.21;26.11;101658.63;5067810;28;20290;-83
2022/07/24 11:02:29;;;;;;;2.30;2.10;;;;;;;36.07;26.55;101654.69;5088137;28;20253;-83
2022/07/24 11:05:26;;;;;;;3.65;1.80;;;;;;;35.93;26.94;101666.25;5087966;28;20020;-83
2022/07/24 11:08:17;;;;;;;3.35;1.92;;;;;;;36.14;26.61;101655.28;5085096;28;20044;-82
2022/07/24 11:10:59;;;;;;;2.10;1.90;;;;;;;36.16;25.69;101655.84;5086967;28;20063;-80
2022/07/24 11:13:34;;;;;;;1.75;1.65;;;;;;;36.17;26.46;101654.72;5054744;28;20089;-81
2022/07/24 11:16:11;;;;;;;2.72;1.90;;;;;;;36.19;26.47;101660.84;5084812;28;20029;-79
2022/07/24 11:18:37;;;;;;;2.13;1.80;;;;;;;36.25;24.65;101654.22;5062276;28;20074;-79